createdAt,value
2023-01-09T00:01:28.774Z,47.05
2023-01-09T00:04:19.072Z,47.17
2023-01-09T00:07:07.740Z,47.03
2023-01-09T00:09:56.368Z,46.86
2023-01-09T00:12:45.151Z,47.12
2023-01-09T00:15:33.721Z,46.92
2023-01-09T00:18:22.406Z,46.73
2023-01-09T00:21:14.420Z,46.94
2023-01-09T00:24:03.087Z,47.02
2023-01-09T00:26:51.778Z,47.04
2023-01-09T00:29:41.552Z,47.03
2023-01-09T00:32:30.795Z,46.98
2023-01-09T00:35:20.035Z,47.16
2023-01-09T00:38:10.015Z,46.90
2023-01-09T00:40:59.134Z,47.31
2023-01-09T00:43:51.393Z,47.06
2023-01-09T00:46:43.746Z,47.34
2023-01-09T00:49:34.873Z,47.02
2023-01-09T00:52:24.092Z,47.08
2023-01-09T00:55:15.445Z,47.36
2023-01-09T00:58:04.233Z,47.21
2023-01-09T01:00:53.091Z,47.06
2023-01-09T01:03:42.255Z,47.01
2023-01-09T01:06:48.570Z,47.12
2023-01-09T01:09:37.188Z,47.46
2023-01-09T01:12:27.243Z,47.53
2023-01-09T01:15:16.509Z,47.49
2023-01-09T01:18:05.349Z,47.40
2023-01-09T01:20:54.008Z,47.24
2023-01-09T01:23:42.724Z,47.46
2023-01-09T01:26:31.373Z,47.38
2023-01-09T01:29:21.391Z,47.17
2023-01-09T01:32:10.083Z,47.26
2023-01-09T01:34:58.780Z,47.41
2023-01-09T01:37:49.732Z,47.18
2023-01-09T01:40:40.346Z,47.48
2023-01-09T01:43:29.059Z,47.41
2023-01-09T01:46:19.434Z,47.24
2023-01-09T01:49:10.286Z,47.32
2023-01-09T01:51:59.138Z,47.68
2023-01-09T01:54:48.215Z,47.67
2023-01-09T01:57:37.417Z,47.41
2023-01-09T02:00:30.635Z,47.75
2023-01-09T02:03:23.313Z,47.71
2023-01-09T02:06:12.623Z,47.43
2023-01-09T02:09:01.278Z,47.43
2023-01-09T02:11:52.271Z,47.67
2023-01-09T02:14:40.927Z,47.66
2023-01-09T02:17:54.009Z,47.67
2023-01-09T02:20:53.381Z,47.67
2023-01-09T02:24:25.447Z,47.41
2023-01-09T02:27:28.954Z,47.56
2023-01-09T02:30:33.327Z,47.38
2023-01-09T02:33:39.131Z,47.32
2023-01-09T02:36:32.142Z,47.43
2023-01-09T02:39:25.593Z,47.56
2023-01-09T02:42:17.736Z,47.55
2023-01-09T02:45:07.320Z,47.55
2023-01-09T02:47:57.308Z,47.42
2023-01-09T02:50:50.150Z,47.43
2023-01-09T02:53:52.702Z,47.63
2023-01-09T02:56:56.969Z,47.77
2023-01-09T02:59:56.685Z,47.38
2023-01-09T03:02:49.639Z,47.36
2023-01-09T03:05:43.295Z,47.67
2023-01-09T03:08:36.087Z,47.59
2023-01-09T03:11:28.816Z,47.78
2023-01-09T03:14:19.755Z,47.78
2023-01-09T03:17:13.471Z,47.75
2023-01-09T03:20:03.218Z,47.54
2023-01-09T03:22:57.524Z,47.70
2023-01-09T03:25:46.223Z,47.71
2023-01-09T03:28:34.863Z,47.64
2023-01-09T03:31:24.034Z,47.50
2023-01-09T03:34:12.747Z,47.52
2023-01-09T03:37:01.769Z,47.62
2023-01-09T03:39:51.767Z,47.49
2023-01-09T03:42:40.417Z,47.43
2023-01-09T03:45:29.137Z,47.38
2023-01-09T03:48:17.787Z,47.42
2023-01-09T03:51:06.531Z,47.58
2023-01-09T03:53:55.182Z,47.31
2023-01-09T03:56:45.887Z,47.53
2023-01-09T03:59:34.487Z,47.67
2023-01-09T04:02:23.002Z,47.79
2023-01-09T04:05:12.288Z,47.86
2023-01-09T04:08:00.876Z,47.53
2023-01-09T04:10:50.359Z,48.02
2023-01-09T04:13:40.417Z,47.54
2023-01-09T04:16:29.020Z,47.40
2023-01-09T04:19:17.852Z,47.42
2023-01-09T04:22:06.499Z,47.78
2023-01-09T04:24:55.103Z,47.79
2023-01-09T04:27:46.026Z,47.57
2023-01-09T04:30:36.691Z,47.59
2023-01-09T04:33:25.258Z,47.66
2023-01-09T04:36:13.924Z,47.51
2023-01-09T04:39:02.541Z,47.64
2023-01-09T04:41:51.267Z,47.73
2023-01-09T04:44:40.111Z,47.15
2023-01-09T04:47:31.109Z,47.66
2023-01-09T04:50:19.954Z,47.41
2023-01-09T04:53:08.633Z,47.89
2023-01-09T04:55:57.239Z,47.66
2023-01-09T04:58:45.867Z,47.16
2023-01-09T05:01:34.920Z,47.46
2023-01-09T05:04:25.063Z,47.61
2023-01-09T05:07:13.714Z,47.69
2023-01-09T05:10:03.347Z,47.79
2023-01-09T05:12:52.574Z,47.55
2023-01-09T05:15:41.219Z,47.46
2023-01-09T05:18:29.973Z,47.38
2023-01-09T05:21:19.948Z,47.65
2023-01-09T05:24:09.172Z,47.52
2023-01-09T05:26:58.502Z,47.69
2023-01-09T05:29:47.094Z,47.36
2023-01-09T05:32:35.768Z,47.15
2023-01-09T05:35:24.872Z,47.08
2023-01-09T05:38:17.955Z,47.08
2023-01-09T05:41:07.130Z,47.03
2023-01-09T05:43:58.430Z,47.69
2023-01-09T05:46:47.200Z,47.82
2023-01-09T05:49:35.950Z,47.55
2023-01-09T05:52:24.782Z,47.99
2023-01-09T05:55:15.001Z,47.68
2023-01-09T05:58:03.634Z,47.46
2023-01-09T06:00:54.164Z,47.59
2023-01-09T06:03:42.849Z,47.85
2023-01-09T06:06:31.528Z,47.90
2023-01-09T06:09:20.164Z,48.07
2023-01-09T06:12:10.337Z,47.75
2023-01-09T06:14:58.903Z,47.69
2023-01-09T06:17:47.978Z,47.89
2023-01-09T06:20:36.880Z,47.94
2023-01-09T06:23:25.571Z,47.89
2023-01-09T06:26:14.177Z,47.75
2023-01-09T06:29:04.258Z,47.82
2023-01-09T06:31:52.889Z,47.62
2023-01-09T06:34:41.629Z,47.64
2023-01-09T06:37:30.796Z,47.75
2023-01-09T06:40:21.291Z,47.43
2023-01-09T06:43:09.980Z,47.29
2023-01-09T06:46:00.214Z,47.89
2023-01-09T06:48:48.910Z,48.25
2023-01-09T06:51:37.541Z,48.16
2023-01-09T06:54:28.666Z,48.41
2023-01-09T06:57:18.751Z,48.52
2023-01-09T07:00:08.455Z,48.48
2023-01-09T07:02:58.494Z,48.55
2023-01-09T07:05:47.911Z,48.45
2023-01-09T07:08:36.612Z,48.42
2023-01-09T07:11:25.274Z,48.27
2023-01-09T07:14:13.872Z,48.46
2023-01-09T07:17:02.973Z,48.53
2023-01-09T07:19:52.979Z,48.50
2023-01-09T07:22:44.593Z,48.30
2023-01-09T07:25:33.240Z,48.45
2023-01-09T07:28:21.898Z,48.45
2023-01-09T07:31:10.609Z,48.49
2023-01-09T07:34:00.565Z,48.50
2023-01-09T07:36:51.199Z,48.32
2023-01-09T07:39:39.843Z,48.52
2023-01-09T07:42:28.734Z,48.35
2023-01-09T07:45:17.495Z,48.31
2023-01-09T07:48:06.780Z,48.40
2023-01-09T07:50:55.462Z,48.40
2023-01-09T07:53:45.572Z,48.48
2023-01-09T07:56:34.279Z,48.29
2023-01-09T07:59:22.943Z,48.43
2023-01-09T08:02:12.346Z,48.31
2023-01-09T08:05:01.100Z,48.28
2023-01-09T08:07:51.339Z,48.42
2023-01-09T08:10:41.412Z,48.30
2023-01-09T08:13:30.128Z,48.59
2023-01-09T08:16:18.854Z,48.57
2023-01-09T08:19:07.699Z,48.21
2023-01-09T08:21:56.251Z,48.31
2023-01-09T08:24:44.909Z,48.04
2023-01-09T08:27:34.981Z,48.48
2023-01-09T08:30:23.703Z,48.26
2023-01-09T08:33:12.393Z,48.37
2023-01-09T08:36:01.056Z,48.58
2023-01-09T08:38:49.702Z,48.26
2023-01-09T08:41:56.118Z,48.48
2023-01-09T08:45:03.657Z,48.31
2023-01-09T08:47:52.309Z,48.30
2023-01-09T08:50:40.863Z,48.42
2023-01-09T08:53:29.706Z,48.28
2023-01-09T08:56:18.331Z,48.41
2023-01-09T08:59:06.961Z,48.25
2023-01-09T09:01:57.322Z,48.10
2023-01-09T09:04:48.038Z,48.04
2023-01-09T09:07:36.714Z,48.43
2023-01-09T09:10:27.451Z,48.63
2023-01-09T09:13:16.115Z,48.53
2023-01-09T09:16:04.932Z,48.58
2023-01-09T09:18:55.222Z,48.21
2023-01-09T09:21:45.350Z,48.43
2023-01-09T09:24:35.340Z,48.50
2023-01-09T09:27:24.159Z,48.30
2023-01-09T09:30:17.483Z,48.24
2023-01-09T09:33:06.780Z,48.47
2023-01-09T09:35:56.795Z,48.69
2023-01-09T09:38:45.462Z,48.54
2023-01-09T09:42:07.085Z,48.63
2023-01-09T09:45:03.638Z,48.34
2023-01-09T09:47:59.051Z,48.79
2023-01-09T09:51:19.520Z,48.70
2023-01-09T09:54:13.839Z,48.59
2023-01-09T09:57:04.568Z,48.70
2023-01-09T09:59:54.013Z,48.61
2023-01-09T10:02:46.737Z,48.36
2023-01-09T10:05:37.508Z,48.32
2023-01-09T10:08:33.820Z,48.30
2023-01-09T10:11:25.064Z,48.19
2023-01-09T10:14:23.816Z,48.20
2023-01-09T10:17:27.488Z,48.05
2023-01-09T10:20:45.579Z,48.37
2023-01-09T10:24:02.920Z,48.30
2023-01-09T10:26:54.066Z,48.10
2023-01-09T10:29:51.700Z,48.25
2023-01-09T10:32:53.012Z,48.33
2023-01-09T10:36:20.972Z,48.19
2023-01-09T10:39:16.542Z,48.53
2023-01-09T10:42:13.615Z,48.00
2023-01-09T10:45:07.575Z,48.06
2023-01-09T10:48:00.552Z,48.19
2023-01-09T10:50:49.888Z,48.03
2023-01-09T10:53:39.818Z,48.28
2023-01-09T10:56:32.495Z,48.13
2023-01-09T10:59:21.144Z,48.30
2023-01-09T11:02:26.197Z,48.37
2023-01-09T11:05:18.391Z,48.53
2023-01-09T11:08:15.637Z,48.46
2023-01-09T11:11:06.499Z,48.39
2023-01-09T11:14:06.009Z,48.64
2023-01-09T11:16:55.617Z,48.34
2023-01-09T11:20:03.074Z,48.37
2023-01-09T11:22:53.312Z,48.26
2023-01-09T11:25:54.034Z,48.58
2023-01-09T11:28:42.633Z,48.31
2023-01-09T11:31:32.829Z,48.14
2023-01-09T11:34:23.833Z,48.18
2023-01-09T11:37:15.882Z,48.35
2023-01-09T11:40:04.701Z,48.22
2023-01-09T11:43:13.529Z,48.39
2023-01-09T11:46:04.698Z,48.14
2023-01-09T11:48:58.696Z,48.44
2023-01-09T11:51:47.402Z,48.25
2023-01-09T11:54:37.839Z,48.22
2023-01-09T11:57:27.246Z,48.28
2023-01-09T12:00:26.927Z,48.29
2023-01-09T12:03:23.471Z,48.30
2023-01-09T12:06:19.589Z,47.96
2023-01-09T12:09:08.875Z,48.04
2023-01-09T12:12:03.099Z,47.68
2023-01-09T12:15:02.580Z,47.99
2023-01-09T12:18:15.955Z,47.82
2023-01-09T12:21:17.732Z,47.82
2023-01-09T12:24:53.219Z,47.95
2023-01-09T12:27:55.506Z,47.89
2023-01-09T12:30:52.646Z,47.92
2023-01-09T12:33:47.878Z,47.64
2023-01-09T12:36:44.464Z,47.90
2023-01-09T12:39:45.448Z,47.57
2023-01-09T12:42:43.746Z,47.77
2023-01-09T12:45:47.881Z,48.01
2023-01-09T12:48:52.328Z,47.94
2023-01-09T12:51:45.255Z,47.74
2023-01-09T12:54:38.990Z,48.12
2023-01-09T12:57:30.422Z,47.83
2023-01-09T13:00:23.741Z,48.22
2023-01-09T13:03:15.295Z,47.94
2023-01-09T13:06:04.800Z,47.89
2023-01-09T13:08:59.794Z,47.98
2023-01-09T13:11:53.342Z,48.11
2023-01-09T13:14:49.346Z,48.01
2023-01-09T13:17:40.827Z,47.93
2023-01-09T13:20:34.601Z,47.90
2023-01-09T13:23:28.317Z,47.73
2023-01-09T13:26:21.580Z,47.77
2023-01-09T13:29:16.365Z,48.26
2023-01-09T13:32:27.438Z,47.88
2023-01-09T13:35:16.762Z,48.14
2023-01-09T13:38:05.451Z,47.81
2023-01-09T13:41:29.831Z,48.09
2023-01-09T13:44:25.841Z,48.07
2023-01-09T13:47:20.288Z,48.33
2023-01-09T13:50:27.023Z,48.26
2023-01-09T13:53:49.449Z,48.23
2023-01-09T13:57:11.425Z,48.28
2023-01-09T14:00:42.891Z,48.09
2023-01-09T14:03:35.941Z,48.19
2023-01-09T14:06:28.096Z,48.22
2023-01-09T14:09:21.143Z,48.25
2023-01-09T14:12:09.890Z,48.09
2023-01-09T14:15:02.032Z,48.25
2023-01-09T14:17:50.931Z,48.11
2023-01-09T14:20:44.006Z,47.94
2023-01-09T14:23:51.152Z,47.63
2023-01-09T14:26:46.883Z,37.81
2023-01-09T14:29:44.203Z,35.21
2023-01-09T14:32:46.075Z,37.38
2023-01-09T14:35:46.508Z,39.70
2023-01-09T14:38:36.852Z,39.96
2023-01-09T14:41:52.475Z,40.51
2023-01-09T14:44:47.987Z,40.55
2023-01-09T14:47:41.111Z,41.01
2023-01-09T14:50:34.645Z,41.15
2023-01-09T14:53:29.069Z,41.30
2023-01-09T14:56:29.936Z,41.94
2023-01-09T14:59:18.975Z,41.90
2023-01-09T15:02:14.598Z,41.52
2023-01-09T15:05:06.440Z,41.85
2023-01-09T15:07:57.522Z,41.71
2023-01-09T15:10:48.591Z,42.32
2023-01-09T15:13:50.686Z,42.13
2023-01-09T15:16:39.376Z,41.86
2023-01-09T15:19:28.473Z,41.07
2023-01-09T15:22:24.910Z,40.96
2023-01-09T15:25:38.765Z,40.86
2023-01-09T15:28:32.669Z,40.57
2023-01-09T15:31:24.373Z,40.67
2023-01-09T15:34:18.631Z,40.83
2023-01-09T15:37:24.590Z,40.50
2023-01-09T15:40:21.954Z,40.52
2023-01-09T15:43:14.675Z,40.95
2023-01-09T15:46:04.898Z,41.52
2023-01-09T15:48:55.264Z,42.04
2023-01-09T15:51:46.353Z,42.42
2023-01-09T15:54:35.317Z,42.72
2023-01-09T15:57:35.407Z,42.88
2023-01-09T16:00:33.358Z,43.14
2023-01-09T16:03:24.937Z,42.98
2023-01-09T16:06:18.008Z,43.11
2023-01-09T16:09:17.416Z,43.17
2023-01-09T16:12:06.472Z,43.23
2023-01-09T16:14:57.125Z,43.45
2023-01-09T16:18:06.802Z,43.35
2023-01-09T16:21:18.102Z,43.61
2023-01-09T16:24:25.276Z,43.94
2023-01-09T16:27:21.285Z,43.98
2023-01-09T16:30:27.451Z,44.02
2023-01-09T16:33:22.094Z,43.67
2023-01-09T16:36:14.020Z,43.55
2023-01-09T16:39:03.114Z,43.61
2023-01-09T16:42:09.379Z,44.06
2023-01-09T16:44:57.946Z,44.55
2023-01-09T16:47:47.250Z,44.79
2023-01-09T16:50:35.857Z,44.65
2023-01-09T16:53:27.243Z,45.10
2023-01-09T16:56:18.602Z,45.06
2023-01-09T16:59:07.522Z,45.29
2023-01-09T17:01:56.559Z,45.45
2023-01-09T17:04:45.583Z,45.35
2023-01-09T17:07:34.450Z,45.09
2023-01-09T17:10:25.019Z,45.10
2023-01-09T17:13:13.842Z,45.48
2023-01-09T17:16:02.487Z,44.23
2023-01-09T17:18:51.450Z,43.99
2023-01-09T17:21:40.249Z,43.67
2023-01-09T17:24:46.351Z,43.53
2023-01-09T17:27:55.274Z,43.54
2023-01-09T17:30:43.869Z,44.03
2023-01-09T17:33:32.542Z,43.92
2023-01-09T17:36:26.582Z,43.45
2023-01-09T17:39:15.835Z,43.37
2023-01-09T17:42:04.576Z,43.61
2023-01-09T17:44:55.638Z,43.53
2023-01-09T17:47:44.272Z,43.55
2023-01-09T17:50:34.948Z,43.23
2023-01-09T17:53:25.313Z,43.55
2023-01-09T17:56:18.316Z,42.64
2023-01-09T17:59:07.438Z,42.50
2023-01-09T18:01:58.103Z,42.39
2023-01-09T18:04:46.920Z,42.57
2023-01-09T18:07:35.683Z,42.92
2023-01-09T18:10:27.207Z,42.81
2023-01-09T18:13:16.408Z,43.08
2023-01-09T18:16:05.676Z,42.96
2023-01-09T18:18:57.539Z,42.61
2023-01-09T18:21:46.789Z,42.75
2023-01-09T18:24:35.542Z,42.79
2023-01-09T18:27:24.535Z,43.08
2023-01-09T18:30:14.017Z,42.45
2023-01-09T18:33:02.633Z,42.56
2023-01-09T18:35:52.839Z,42.37
2023-01-09T18:38:41.803Z,42.75
2023-01-09T18:41:30.923Z,42.39
2023-01-09T18:44:21.971Z,42.73
2023-01-09T18:47:10.627Z,42.94
2023-01-09T18:49:59.296Z,43.64
2023-01-09T18:52:49.332Z,43.54
2023-01-09T18:55:38.665Z,43.20
2023-01-09T18:58:27.243Z,43.44
2023-01-09T19:01:16.155Z,43.50
2023-01-09T19:04:04.859Z,43.51
2023-01-09T19:06:56.082Z,43.57
2023-01-09T19:09:46.327Z,43.92
2023-01-09T19:12:35.011Z,43.97
2023-01-09T19:15:23.597Z,43.83
2023-01-09T19:18:12.580Z,43.98
2023-01-09T19:21:01.196Z,44.09
2023-01-09T19:23:50.280Z,43.69
2023-01-09T19:26:40.431Z,43.34
2023-01-09T19:29:29.088Z,43.63
2023-01-09T19:32:17.930Z,43.69
2023-01-09T19:35:07.233Z,43.66
2023-01-09T19:37:55.962Z,43.65
2023-01-09T19:40:44.690Z,43.20
2023-01-09T19:43:34.673Z,43.61
2023-01-09T19:46:25.068Z,43.45
2023-01-09T19:49:13.751Z,43.57
2023-01-09T19:52:02.411Z,43.68
2023-01-09T19:54:51.013Z,44.46
2023-01-09T19:57:39.864Z,44.86
2023-01-09T20:00:29.827Z,44.65
2023-01-09T20:03:18.515Z,44.96
2023-01-09T20:06:09.798Z,44.60
2023-01-09T20:08:59.804Z,44.17
2023-01-09T20:11:48.442Z,44.19
2023-01-09T20:14:37.832Z,44.70
2023-01-09T20:17:28.492Z,44.78
2023-01-09T20:23:05.157Z,44.58
2023-01-09T20:25:53.850Z,44.45
2023-01-09T20:28:42.485Z,44.33
2023-01-09T20:31:32.994Z,44.16
2023-01-09T20:34:23.026Z,44.44
2023-01-09T20:37:11.754Z,44.22
2023-01-09T20:40:00.484Z,44.26
2023-01-09T20:42:49.232Z,44.06
2023-01-09T20:45:38.002Z,44.58
2023-01-09T20:48:26.778Z,45.17
2023-01-09T20:51:16.984Z,44.52
2023-01-09T20:54:05.823Z,44.74
2023-01-09T20:56:54.663Z,45.26
2023-01-09T20:59:43.244Z,45.40
2023-01-09T21:02:31.945Z,45.53
2023-01-09T21:05:23.453Z,45.36
2023-01-09T21:08:13.462Z,45.20
2023-01-09T21:11:02.353Z,45.52
2023-01-09T21:13:51.467Z,45.53
2023-01-09T21:16:40.248Z,45.50
2023-01-09T21:19:29.002Z,45.64
2023-01-09T21:22:17.744Z,45.90
2023-01-09T21:25:09.270Z,45.76
2023-01-09T21:27:57.939Z,46.15
2023-01-09T21:30:49.581Z,45.99
2023-01-09T21:33:38.295Z,46.05
2023-01-09T21:36:26.888Z,46.05
2023-01-09T21:39:15.576Z,45.76
2023-01-09T21:42:23.394Z,45.56
2023-01-09T21:45:32.720Z,45.71
2023-01-09T21:48:23.572Z,45.93
2023-01-09T21:51:12.355Z,45.84
2023-01-09T21:54:00.991Z,45.81
2023-01-09T21:56:49.638Z,45.74
2023-01-09T21:59:39.571Z,45.84
2023-01-09T22:02:28.135Z,45.77
2023-01-09T22:05:16.799Z,46.24
2023-01-09T22:08:05.413Z,45.99
2023-01-09T22:10:59.830Z,46.22
2023-01-09T22:13:48.972Z,45.73
2023-01-09T22:16:39.049Z,46.11
2023-01-09T22:19:28.302Z,46.26
2023-01-09T22:22:17.002Z,46.45
2023-01-09T22:25:06.956Z,46.59
2023-01-09T22:27:55.518Z,46.80
2023-01-09T22:30:44.315Z,46.56
2023-01-09T22:33:34.608Z,46.97
2023-01-09T22:36:23.183Z,46.68
2023-01-09T22:39:13.321Z,46.75
2023-01-09T22:42:02.514Z,46.45
2023-01-09T22:44:51.095Z,46.24
2023-01-09T22:47:39.695Z,45.72
2023-01-09T22:50:29.762Z,45.83
2023-01-09T22:53:18.353Z,45.78
2023-01-09T22:56:09.549Z,45.67
2023-01-09T22:59:00.799Z,45.65
2023-01-09T23:01:49.496Z,45.72
2023-01-09T23:04:38.205Z,45.99
2023-01-09T23:07:28.449Z,46.38
2023-01-09T23:10:17.623Z,46.78
2023-01-09T23:13:06.392Z,46.87
2023-01-09T23:15:55.438Z,47.26
2023-01-09T23:18:44.075Z,47.19
2023-01-09T23:21:32.689Z,47.38
2023-01-09T23:24:23.062Z,47.23
2023-01-09T23:27:11.667Z,47.37
2023-01-09T23:30:00.300Z,47.61
2023-01-09T23:32:49.254Z,47.25
2023-01-09T23:35:39.108Z,47.43
2023-01-09T23:38:27.870Z,47.47
2023-01-09T23:41:17.894Z,47.42
2023-01-09T23:44:05.575Z,47.41
2023-01-09T23:46:54.532Z,47.28
2023-01-09T23:49:43.088Z,47.40
2023-01-09T23:52:31.756Z,47.23
2023-01-09T23:55:20.515Z,47.77
2023-01-09T23:58:10.611Z,47.59
